Time;durP1;ratioP1;P1;durP2;ratioP2;P2;SDS_P1;SDS_P2;PMS_P1;PMS_P2;Temp;Humidity;BMP_temperature;BMP_pressure;BME280_temperature;BME280_humidity;BME280_pressure;Samples;Min_cycle;Max_cycle;Signal;HPM_P1;HPM_P2
2023/06/04 00:02:10;;;;;;;0.60;0.40;;;;;;;15.90;51.77;100400.63;5035359;28;20458;-48
2023/06/04 00:04:37;;;;;;;0.80;0.70;;;;;;;16.29;50.04;100411.16;5034983;28;20466;-47
2023/06/04 00:07:03;;;;;;;8.53;0.60;;;;;;;16.43;49.53;100404.22;5035125;28;20491;-48
2023/06/04 00:09:30;;;;;;;3.47;0.77;;;;;;;16.44;49.44;100401.47;5034918;28;20513;-48
2023/06/04 00:11:56;;;;;;;0.60;0.40;;;;;;;16.32;49.57;100409.28;5034744;28;20478;-47
2023/06/04 00:14:23;;;;;;;0.80;0.60;;;;;;;16.00;50.06;100398.34;5034587;28;20539;-48
2023/06/04 00:16:50;;;;;;;0.70;0.50;;;;;;;16.06;50.52;100406.09;5034894;28;20463;-47
2023/06/04 00:19:16;;;;;;;1.33;0.70;;;;;;;15.96;50.22;100404.81;5034742;28;20478;-48
2023/06/04 00:21:43;;;;;;;0.80;0.53;;;;;;;15.61;51.09;100403.81;5034650;28;20481;-47
2023/06/04 00:24:12;;;;;;;0.70;0.50;;;;;;;15.73;50.65;100403.22;5034827;28;20443;-48
2023/06/04 00:26:39;;;;;;;0.50;0.40;;;;;;;15.61;50.58;100404.66;5034473;28;20495;-48
2023/06/04 00:29:06;;;;;;;1.43;0.40;;;;;;;15.56;51.28;100405.81;5034317;28;20945;-47
2023/06/04 00:31:32;;;;;;;8.43;0.70;;;;;;;15.58;51.37;100407.47;5034713;28;20452;-48
2023/06/04 00:33:59;;;;;;;0.60;0.43;;;;;;;15.56;51.80;100408.50;5034790;28;20526;-47
2023/06/04 00:36:25;;;;;;;0.50;0.40;;;;;;;15.41;51.99;100407.41;5034235;28;20907;-47
2023/06/04 00:38:52;;;;;;;3.73;1.43;;;;;;;15.57;52.15;100405.72;5034271;28;20459;-48
2023/06/04 00:41:18;;;;;;;1.67;0.73;;;;;;;15.10;54.07;100416.84;5034112;28;20451;-47
2023/06/04 00:43:45;;;;;;;3.43;0.70;;;;;;;14.60;56.83;100413.72;5034483;28;20530;-48
2023/06/04 00:46:17;;;;;;;0.73;0.50;;;;;;;14.29;57.95;100414.13;5034029;28;20452;-47
2023/06/04 00:48:45;;;;;;;0.50;0.30;;;;;;;14.00;59.62;100412.66;5034177;28;20833;-47
2023/06/04 00:51:12;;;;;;;0.80;0.50;;;;;;;13.75;60.72;100418.09;5031909;28;20904;-48
2023/06/04 00:53:38;;;;;;;0.70;0.50;;;;;;;13.94;60.99;100415.56;5034152;28;20452;-47
2023/06/04 00:56:05;;;;;;;11.23;1.13;;;;;;;13.71;60.11;100419.16;5034298;28;20462;-47
2023/06/04 00:58:37;;;;;;;0.80;0.40;;;;;;;13.75;61.85;100414.56;5034255;28;20455;-47
2023/06/04 01:01:06;;;;;;;1.47;0.70;;;;;;;13.50;62.07;100411.97;5033931;28;20458;-47
2023/06/04 01:03:37;;;;;;;0.80;0.53;;;;;;;13.49;62.19;100410.25;5033773;28;21044;-46
2023/06/04 01:06:34;;;;;;;1.93;1.57;;;;;;;13.26;63.32;100414.66;5034311;28;20444;-47
2023/06/04 01:09:02;;;;;;;0.90;0.60;;;;;;;13.15;64.65;100406.13;5033273;28;20484;-49
2023/06/04 01:11:37;;;;;;;1.27;1.17;;;;;;;13.07;64.94;100408.22;5033793;28;20452;-48
2023/06/04 01:14:08;;;;;;;1.23;0.93;;;;;;;13.02;65.49;100411.06;5033776;28;20455;-47
2023/06/04 01:16:39;;;;;;;1.10;0.90;;;;;;;12.79;67.13;100420.81;5033794;28;20489;-47
2023/06/04 01:19:20;;;;;;;3.03;0.90;;;;;;;12.46;67.75;100413.94;5033547;28;20530;-48
2023/06/04 01:21:51;;;;;;;1.50;0.87;;;;;;;12.62;66.69;100421.44;5033743;28;20913;-47
2023/06/04 01:24:25;;;;;;;1.43;0.83;;;;;;;12.64;67.16;100419.56;5033786;28;20459;-46
2023/06/04 01:26:55;;;;;;;0.73;0.73;;;;;;;12.58;67.50;100412.63;5032889;28;20527;-47
2023/06/04 01:29:23;;;;;;;2.60;0.60;;;;;;;12.51;67.49;100415.59;5033093;28;20455;-47
2023/06/04 01:31:52;;;;;;;0.90;0.50;;;;;;;12.42;68.00;100424.75;5033559;28;20455;-48
2023/06/04 01:34:19;;;;;;;0.73;0.50;;;;;;;12.51;67.68;100412.94;5033467;28;20505;-47
2023/06/04 01:36:45;;;;;;;1.30;0.80;;;;;;;12.62;66.38;100414.28;5033158;28;20495;-47
2023/06/04 01:39:12;;;;;;;0.60;0.40;;;;;;;12.79;65.90;100416.38;5033255;28;20823;-48
2023/06/04 01:41:38;;;;;;;0.50;0.30;;;;;;;12.92;65.32;100417.66;5033132;28;20547;-47
2023/06/04 01:44:04;;;;;;;1.07;0.80;;;;;;;12.99;63.77;100410.28;5033133;28;20487;-48
2023/06/04 01:46:31;;;;;;;0.50;0.40;;;;;;;13.48;62.68;100419.19;5033214;28;20475;-47
2023/06/04 01:48:57;;;;;;;0.70;0.40;;;;;;;13.01;64.01;100408.44;5032418;28;20478;-47
2023/06/04 01:51:24;;;;;;;1.47;0.50;;;;;;;13.09;64.26;100403.69;5033034;28;20448;-47
2023/06/04 01:53:50;;;;;;;8.40;0.40;;;;;;;12.97;64.73;100401.47;5032963;28;20491;-47
2023/06/04 01:56:17;;;;;;;0.60;0.37;;;;;;;12.89;66.33;100408.91;5032836;28;20933;-47
2023/06/04 01:58:44;;;;;;;0.80;0.63;;;;;;;12.74;67.13;100405.84;5032854;28;20467;-47
2023/06/04 02:01:10;;;;;;;0.63;0.40;;;;;;;12.67;66.71;100408.78;5033054;28;20475;-47
2023/06/04 02:03:37;;;;;;;1.60;0.83;;;;;;;12.32;68.48;100410.88;5033102;28;20451;-47
2023/06/04 02:06:07;;;;;;;0.57;0.33;;;;;;;12.30;67.82;100412.72;5032843;28;20469;-47
2023/06/04 02:08:35;;;;;;;0.90;0.67;;;;;;;12.27;68.97;100410.16;5032382;28;20480;-47
2023/06/04 02:11:01;;;;;;;1.83;0.50;;;;;;;11.88;70.92;100409.66;5032564;28;20458;-47
2023/06/04 02:13:28;;;;;;;0.50;0.40;;;;;;;11.89;70.73;100416.75;5032694;28;20945;-47
2023/06/04 02:15:55;;;;;;;0.50;0.40;;;;;;;11.82;71.97;100415.19;5032619;28;20875;-46
2023/06/04 02:18:22;;;;;;;2.80;0.50;;;;;;;11.75;71.46;100419.81;5032537;28;20833;-47
2023/06/04 02:20:49;;;;;;;0.50;0.30;;;;;;;11.63;72.76;100421.97;5026239;28;20455;-47
2023/06/04 02:23:17;;;;;;;1.50;0.53;;;;;;;11.48;72.81;100410.88;5032340;28;20833;-47
2023/06/04 02:25:45;;;;;;;1.63;0.50;;;;;;;11.43;73.83;100411.94;5032543;28;20455;-47
2023/06/04 02:28:13;;;;;;;0.50;0.40;;;;;;;11.37;73.86;100426.28;5032221;28;20541;-47
2023/06/04 02:30:39;;;;;;;0.80;0.60;;;;;;;11.26;74.56;100423.09;5032485;28;20456;-47
2023/06/04 02:33:06;;;;;;;0.70;0.30;;;;;;;11.11;75.28;100420.88;5032481;28;20448;-47
2023/06/04 02:35:32;;;;;;;1.17;0.40;;;;;;;11.06;75.27;100428.09;5032318;28;20985;-47
2023/06/04 02:38:00;;;;;;;0.80;0.77;;;;;;;11.18;75.37;100425.09;5032139;28;21054;-48
2023/06/04 02:40:29;;;;;;;8.80;0.43;;;;;;;10.83;76.34;100426.97;5032698;28;20509;-46
2023/06/04 02:42:56;;;;;;;0.50;0.30;;;;;;;10.91;76.78;100426.75;5031956;28;20462;-47
2023/06/04 02:45:23;;;;;;;0.80;0.47;;;;;;;10.72;77.20;100425.50;5032518;28;20479;-47
2023/06/04 02:47:49;;;;;;;0.60;0.50;;;;;;;10.83;77.42;100421.66;5030839;28;20518;-47
2023/06/04 02:50:16;;;;;;;0.73;0.47;;;;;;;10.92;76.99;100423.16;5032086;28;20448;-47
2023/06/04 02:52:43;;;;;;;0.53;0.37;;;;;;;10.73;77.41;100420.16;5032090;28;20452;-46
2023/06/04 02:55:11;;;;;;;0.83;0.60;;;;;;;10.46;77.89;100420.88;5027747;28;20466;-47
2023/06/04 02:57:42;;;;;;;1.40;1.30;;;;;;;10.43;78.44;100424.50;5030524;28;21000;-47
2023/06/04 03:00:12;;;;;;;0.83;0.70;;;;;;;10.35;78.71;100422.03;5035682;28;20457;-48
2023/06/04 03:02:44;;;;;;;0.70;0.50;;;;;;;10.30;79.15;100423.94;5036167;28;20452;-47
2023/06/04 03:05:12;;;;;;;0.50;0.40;;;;;;;10.36;79.28;100426.44;5036215;28;20448;-47
2023/06/04 03:07:42;;;;;;;2.60;0.87;;;;;;;10.30;79.53;100428.38;5036215;28;20578;-47
2023/06/04 03:10:10;;;;;;;0.67;0.30;;;;;;;10.29;79.90;100422.19;5036107;28;20462;-47
2023/06/04 03:12:36;;;;;;;0.67;0.67;;;;;;;10.41;79.26;100425.44;5036080;28;20448;-47
2023/06/04 03:15:04;;;;;;;1.40;0.40;;;;;;;10.46;79.43;100426.19;5036176;28;20490;-47
2023/06/04 03:17:34;;;;;;;8.50;0.80;;;;;;;10.39;80.05;100418.38;5035715;28;20721;-47
2023/06/04 03:20:00;;;;;;;3.83;0.80;;;;;;;10.34;79.84;100425.59;5035982;28;20859;-47
2023/06/04 03:22:28;;;;;;;7.33;0.87;;;;;;;10.20;80.49;100427.69;5036037;28;20461;-48
2023/06/04 03:24:54;;;;;;;0.70;0.70;;;;;;;10.32;80.09;100435.41;5035473;28;21023;-47
2023/06/04 03:27:21;;;;;;;1.87;0.60;;;;;;;10.27;80.27;100431.97;5036171;28;20491;-47
2023/06/04 03:29:48;;;;;;;0.77;0.57;;;;;;;10.18;80.50;100434.84;5035494;28;20991;-47
2023/06/04 03:32:15;;;;;;;8.43;1.13;;;;;;;10.05;80.96;100441.34;5035562;28;20570;-47
2023/06/04 03:34:43;;;;;;;1.10;0.80;;;;;;;10.07;80.78;100437.75;5035574;28;20535;-47
2023/06/04 03:37:09;;;;;;;0.60;0.40;;;;;;;10.07;81.19;100429.78;5035833;28;20474;-47
2023/06/04 03:39:36;;;;;;;0.60;0.40;;;;;;;10.07;80.95;100427.13;5035501;28;20805;-48
2023/06/04 03:42:02;;;;;;;0.77;0.50;;;;;;;10.05;81.28;100430.72;5035366;28;21008;-47
2023/06/04 03:44:29;;;;;;;1.00;0.80;;;;;;;10.03;81.49;100428.13;5035553;28;20443;-47
2023/06/04 03:46:55;;;;;;;0.83;0.40;;;;;;;10.07;81.86;100434.22;5035239;28;20475;-47
2023/06/04 03:49:22;;;;;;;0.70;0.63;;;;;;;10.06;81.63;100436.00;5035029;28;21023;-47
2023/06/04 03:51:49;;;;;;;0.63;0.30;;;;;;;10.15;81.62;100437.56;5035556;28;20509;-47
2023/06/04 03:54:18;;;;;;;0.60;0.40;;;;;;;10.28;81.04;100435.50;5035337;28;20570;-47
2023/06/04 03:56:45;;;;;;;0.70;0.40;;;;;;;10.20;81.30;100433.00;5035295;28;20502;-47
2023/06/04 03:59:12;;;;;;;0.60;0.43;;;;;;;10.29;80.63;100438.13;5034742;28;20893;-47
2023/06/04 04:01:39;;;;;;;1.90;0.40;;;;;;;10.12;81.89;100437.63;5035654;28;20543;-48
2023/06/04 04:04:05;;;;;;;0.50;0.30;;;;;;;10.31;81.29;100433.66;5035047;28;21035;-48
2023/06/04 04:06:32;;;;;;;10.77;2.97;;;;;;;10.32;81.54;100437.19;5035026;28;20485;-48
2023/06/04 04:08:58;;;;;;;1.40;0.40;;;;;;;10.39;81.58;100436.97;5035057;28;20921;-48
2023/06/04 04:11:25;;;;;;;0.50;0.40;;;;;;;10.43;81.90;100437.78;5034358;28;20458;-47
2023/06/04 04:13:52;;;;;;;0.93;0.50;;;;;;;10.46;81.90;100439.50;5034689;28;20460;-48
2023/06/04 04:16:19;;;;;;;16.67;1.27;;;;;;;10.45;82.08;100424.47;5034778;28;20468;-47
2023/06/04 04:18:46;;;;;;;0.40;0.30;;;;;;;10.51;82.18;100441.09;5034752;28;20454;-48
2023/06/04 04:21:12;;;;;;;2.40;0.70;;;;;;;10.47;82.16;100442.09;5035210;28;20517;-48
2023/06/04 04:23:42;;;;;;;4.20;0.73;;;;;;;10.70;82.45;100448.63;5034517;28;20460;-48
2023/06/04 04:26:09;;;;;;;4.07;0.47;;;;;;;10.52;82.62;100448.16;5034524;28;20525;-48
2023/06/04 04:28:37;;;;;;;3.10;0.60;;;;;;;10.84;82.43;100442.00;5034473;28;20514;-48
2023/06/04 04:31:04;;;;;;;0.73;0.63;;;;;;;11.62;78.01;100447.72;5034911;28;20448;-48
2023/06/04 04:33:32;;;;;;;0.50;0.40;;;;;;;12.71;74.89;100442.41;5034493;28;20455;-49
2023/06/04 04:35:59;;;;;;;0.80;0.70;;;;;;;13.31;71.59;100442.06;5034772;28;20806;-49
2023/06/04 04:38:28;;;;;;;2.13;0.80;;;;;;;13.98;68.21;100443.03;5034516;28;20450;-49
2023/06/04 04:40:55;;;;;;;0.60;0.40;;;;;;;14.52;65.37;100440.78;5034416;28;20451;-50
2023/06/04 04:43:32;;;;;;;3.70;0.90;;;;;;;15.17;63.67;100446.00;5034325;28;20483;-48
2023/06/04 04:45:59;;;;;;;0.80;0.63;;;;;;;15.62;61.46;100440.38;5034525;28;20505;-49
2023/06/04 04:48:26;;;;;;;0.70;0.50;;;;;;;15.79;61.15;100440.47;5034101;28;20633;-49
2023/06/04 04:50:53;;;;;;;0.70;0.60;;;;;;;15.96;59.97;100445.03;5034211;28;20501;-47
2023/06/04 04:53:20;;;;;;;0.90;0.60;;;;;;;15.76;59.51;100445.09;5033864;28;20458;-50
2023/06/04 04:55:47;;;;;;;1.70;1.30;;;;;;;15.75;60.95;100451.38;5033310;28;20970;-49
2023/06/04 04:58:14;;;;;;;0.87;0.70;;;;;;;15.85;60.70;100442.84;5033505;28;20475;-49
2023/06/04 05:00:40;;;;;;;0.97;0.87;;;;;;;16.63;58.38;100440.81;5033837;28;20746;-49
2023/06/04 05:03:07;;;;;;;0.80;0.60;;;;;;;16.50;58.83;100443.25;5033495;28;21015;-50
2023/06/04 05:05:33;;;;;;;1.27;0.60;;;;;;;16.61;58.72;100443.56;5033873;28;20452;-48
2023/06/04 05:08:00;;;;;;;0.57;0.47;;;;;;;16.99;57.37;100441.59;5033582;28;20494;-49
2023/06/04 05:10:27;;;;;;;0.60;0.50;;;;;;;16.85;58.61;100450.38;5033809;28;20487;-49
2023/06/04 05:12:55;;;;;;;0.93;0.63;;;;;;;17.26;57.77;100452.69;5033835;28;20822;-49
2023/06/04 05:15:22;;;;;;;3.77;0.70;;;;;;;17.28;56.77;100461.56;5033511;28;20980;-49
2023/06/04 05:17:48;;;;;;;0.60;0.50;;;;;;;17.60;55.16;100458.94;5033629;28;20521;-50
2023/06/04 05:20:15;;;;;;;1.17;0.87;;;;;;;17.26;56.04;100466.13;5033487;28;20451;-50
2023/06/04 05:22:43;;;;;;;3.50;0.90;;;;;;;17.46;55.66;100457.88;5032410;28;21010;-50
2023/06/04 05:25:09;;;;;;;0.80;0.70;;;;;;;17.64;56.09;100461.38;5033047;28;20514;-50
2023/06/04 05:27:37;;;;;;;0.80;0.80;;;;;;;17.87;55.42;100462.81;5033525;28;20479;-51
2023/06/04 05:30:03;;;;;;;1.17;0.73;;;;;;;18.10;54.83;100460.66;5032897;28;20462;-50
2023/06/04 05:32:32;;;;;;;1.00;0.70;;;;;;;18.21;55.02;100463.59;5033608;28;20451;-50
2023/06/04 05:34:59;;;;;;;0.70;0.60;;;;;;;17.93;55.04;100469.66;5033600;28;20444;-50
2023/06/04 05:37:29;;;;;;;1.83;0.70;;;;;;;17.92;55.33;100476.00;5033397;28;20467;-48
2023/06/04 05:39:56;;;;;;;0.50;0.40;;;;;;;18.28;53.67;100478.44;5033363;28;20452;-49
2023/06/04 05:42:23;;;;;;;0.80;0.60;;;;;;;18.49;54.15;100476.31;5033279;28;20463;-49
2023/06/04 05:44:50;;;;;;;0.70;0.57;;;;;;;18.85;52.34;100465.25;5033233;28;20443;-49
2023/06/04 05:47:18;;;;;;;0.80;0.60;;;;;;;19.09;50.48;100466.47;5032542;28;20472;-49
2023/06/04 05:49:44;;;;;;;0.93;0.60;;;;;;;19.16;50.34;100464.25;5032037;28;21026;-49
2023/06/04 05:52:11;;;;;;;2.83;0.73;;;;;;;19.04;51.34;100473.06;5033282;28;20458;-49
2023/06/04 05:54:37;;;;;;;4.60;0.80;;;;;;;19.35;50.40;100469.38;5032672;28;20502;-49
2023/06/04 05:57:05;;;;;;;1.00;0.73;;;;;;;19.36;50.95;100468.41;5032388;28;21065;-49
2023/06/04 05:59:32;;;;;;;0.90;0.50;;;;;;;19.41;50.14;100472.56;5032720;28;20535;-49
2023/06/04 06:01:58;;;;;;;0.70;0.60;;;;;;;19.65;49.03;100475.59;5032694;28;20513;-49
2023/06/04 06:04:26;;;;;;;0.60;0.47;;;;;;;19.81;48.68;100476.34;5032225;28;20448;-49
2023/06/04 06:06:52;;;;;;;1.23;1.03;;;;;;;19.56;49.24;100475.28;5032626;28;20486;-49
2023/06/04 06:09:19;;;;;;;1.67;0.93;;;;;;;19.99;47.68;100473.41;5032720;28;20491;-49
2023/06/04 06:11:46;;;;;;;1.80;0.80;;;;;;;20.20;48.94;100472.03;5032220;28;20487;-49
2023/06/04 06:14:12;;;;;;;1.67;0.87;;;;;;;20.34;48.48;100468.41;5032317;28;20491;-50
2023/06/04 06:16:40;;;;;;;1.00;0.70;;;;;;;20.32;47.80;100471.22;5032465;28;20474;-50
2023/06/04 06:19:06;;;;;;;1.47;1.37;;;;;;;20.00;47.75;100478.72;5032308;28;20444;-50
2023/06/04 06:21:33;;;;;;;0.70;0.60;;;;;;;19.70;48.80;100486.06;5032763;28;20466;-50
2023/06/04 06:23:59;;;;;;;1.33;0.70;;;;;;;20.27;47.87;100480.56;5031980;28;20451;-50
2023/06/04 06:26:26;;;;;;;1.00;0.90;;;;;;;19.86;46.19;100473.34;5032261;28;20476;-51
2023/06/04 06:28:52;;;;;;;0.70;0.30;;;;;;;19.08;44.60;100498.91;5032059;28;20907;-50
2023/06/04 06:31:19;;;;;;;12.57;1.00;;;;;;;19.27;43.45;100491.41;5032440;28;20487;-50
2023/06/04 06:33:46;;;;;;;0.80;0.50;;;;;;;19.47;43.30;100501.84;5031896;28;20507;-50
2023/06/04 06:36:13;;;;;;;0.73;0.60;;;;;;;19.83;41.94;100500.50;5032481;28;20453;-51
2023/06/04 06:38:40;;;;;;;0.90;0.73;;;;;;;19.69;43.27;100500.53;5032190;28;20899;-51
2023/06/04 06:41:06;;;;;;;0.80;0.60;;;;;;;19.49;42.96;100510.72;5032051;28;20832;-50
2023/06/04 06:43:33;;;;;;;1.00;0.70;;;;;;;19.47;42.80;100512.63;5031962;28;20479;-51
2023/06/04 06:46:01;;;;;;;0.50;0.30;;;;;;;19.49;42.65;100510.72;5031837;28;20452;-50
2023/06/04 06:48:28;;;;;;;0.70;0.50;;;;;;;19.85;42.61;100513.91;5032243;28;20902;-51
2023/06/04 06:50:55;;;;;;;0.90;0.67;;;;;;;19.88;42.61;100513.72;5032200;28;20447;-50
2023/06/04 06:53:21;;;;;;;11.53;1.23;;;;;;;20.04;41.99;100509.09;5031939;28;20953;-52
2023/06/04 06:55:48;;;;;;;0.60;0.40;;;;;;;20.49;42.71;100513.34;5031961;28;20455;-50
2023/06/04 06:58:15;;;;;;;0.60;0.30;;;;;;;19.73;39.42;100513.72;5031919;28;20467;-50
2023/06/04 07:00:41;;;;;;;1.00;0.67;;;;;;;19.65;40.36;100513.34;5031734;28;20463;-50
2023/06/04 07:03:08;;;;;;;1.30;0.60;;;;;;;19.81;39.19;100507.84;5031960;28;20458;-50
2023/06/04 07:05:35;;;;;;;0.87;0.53;;;;;;;19.65;40.00;100515.19;5032011;28;20452;-50
2023/06/04 07:08:02;;;;;;;0.63;0.60;;;;;;;20.09;40.13;100517.75;5032014;28;20471;-48
2023/06/04 07:10:30;;;;;;;3.27;0.80;;;;;;;20.24;40.12;100510.47;5031631;28;20480;-49
2023/06/04 07:12:56;;;;;;;0.73;0.50;;;;;;;20.26;39.58;100511.25;5031735;28;20854;-50
2023/06/04 07:15:23;;;;;;;2.30;0.73;;;;;;;20.08;39.65;100506.06;5031904;28;20534;-49
2023/06/04 07:17:49;;;;;;;4.57;0.70;;;;;;;20.21;39.43;100510.69;5031689;28;20471;-50
2023/06/04 07:20:16;;;;;;;2.20;0.70;;;;;;;20.19;39.05;100505.41;5063633;28;20456;-49
2023/06/04 07:22:43;;;;;;;1.37;0.70;;;;;;;20.26;39.40;100506.72;5031771;28;20596;-49
2023/06/04 07:25:09;;;;;;;1.60;0.80;;;;;;;20.57;39.34;100502.91;5031308;28;20451;-49
2023/06/04 07:27:36;;;;;;;1.27;0.50;;;;;;;20.35;38.88;100514.22;5031626;28;20567;-50
2023/06/04 07:30:03;;;;;;;0.80;0.60;;;;;;;20.34;38.35;100517.88;5031793;28;20897;-46
2023/06/04 07:32:30;;;;;;;0.70;0.40;;;;;;;19.96;38.70;100514.97;5031988;28;20443;-47
2023/06/04 07:34:56;;;;;;;1.00;0.83;;;;;;;20.38;37.40;100518.53;5031859;28;20483;-46
2023/06/04 07:37:23;;;;;;;1.90;0.70;;;;;;;20.56;37.95;100506.59;5030511;28;21002;-46
2023/06/04 07:39:49;;;;;;;0.80;0.50;;;;;;;20.89;37.88;100500.72;5031715;28;20801;-46
2023/06/04 07:42:16;;;;;;;3.90;0.43;;;;;;;21.05;37.71;100511.34;5031559;28;20990;-46
2023/06/04 07:44:42;;;;;;;0.70;0.40;;;;;;;20.93;36.53;100515.75;5031880;28;20451;-47
2023/06/04 07:47:08;;;;;;;1.30;1.20;;;;;;;20.85;36.34;100499.22;5034887;28;20475;-46
2023/06/04 07:49:35;;;;;;;0.60;0.37;;;;;;;21.33;36.78;100513.06;5034991;28;20997;-47
2023/06/04 07:52:13;;;;;;;2.77;0.63;;;;;;;21.07;37.51;100498.59;5035384;28;21022;-49
2023/06/04 07:54:41;;;;;;;0.83;0.60;;;;;;;21.35;36.60;100516.50;5035124;28;20538;-49
2023/06/04 07:57:08;;;;;;;1.67;0.90;;;;;;;21.15;36.86;100508.91;5035054;28;20545;-49
2023/06/04 07:59:35;;;;;;;2.67;1.33;;;;;;;20.77;35.80;100512.38;5035101;28;20452;-50
2023/06/04 08:02:01;;;;;;;4.93;0.60;;;;;;;20.87;37.16;100518.03;5035377;28;20517;-50
2023/06/04 08:04:28;;;;;;;0.80;0.50;;;;;;;21.20;36.66;100506.72;5035093;28;20489;-50
2023/06/04 08:06:55;;;;;;;0.70;0.50;;;;;;;20.75;37.63;100519.72;5035052;28;20510;-50
2023/06/04 08:09:21;;;;;;;0.87;0.63;;;;;;;21.00;37.14;100511.69;5034802;28;20487;-50
2023/06/04 08:11:49;;;;;;;0.90;0.80;;;;;;;20.96;37.13;100518.25;5034876;28;21016;-50
2023/06/04 08:14:15;;;;;;;0.70;0.40;;;;;;;21.23;37.84;100511.91;5034824;28;20953;-50
2023/06/04 08:16:42;;;;;;;0.80;0.60;;;;;;;21.40;37.63;100508.09;5035310;28;20463;-50
2023/06/04 08:19:08;;;;;;;0.60;0.30;;;;;;;21.16;36.74;100510.63;5035421;28;20547;-49
2023/06/04 08:21:35;;;;;;;0.57;0.37;;;;;;;20.98;37.53;100508.22;5034818;28;20494;-49
2023/06/04 08:24:02;;;;;;;1.53;1.27;;;;;;;21.39;38.04;100507.22;5034679;28;20471;-49
2023/06/04 08:26:29;;;;;;;0.80;0.60;;;;;;;21.31;37.08;100508.72;5034670;28;20471;-49
2023/06/04 08:28:55;;;;;;;0.60;0.43;;;;;;;21.33;37.00;100504.94;5034564;28;20831;-49
2023/06/04 08:31:22;;;;;;;6.30;1.23;;;;;;;21.61;37.65;100505.69;5034367;28;20462;-49
2023/06/04 08:33:48;;;;;;;1.00;0.70;;;;;;;21.63;37.04;100509.16;5034415;28;20452;-49
2023/06/04 08:36:16;;;;;;;1.20;0.87;;;;;;;21.48;37.19;100513.81;5034164;28;20812;-49
2023/06/04 08:38:42;;;;;;;0.60;0.40;;;;;;;21.59;36.77;100512.09;5034211;28;20805;-49
2023/06/04 08:41:42;;;;;;;0.97;0.73;;;;;;;21.59;37.20;100513.94;5034079;28;20824;-49
2023/06/04 08:44:09;;;;;;;4.20;0.83;;;;;;;21.59;37.02;100519.34;5034317;28;20455;-48
2023/06/04 08:46:41;;;;;;;0.80;0.60;;;;;;;21.74;36.59;100522.78;5033939;28;20464;-49
2023/06/04 08:49:08;;;;;;;0.60;0.40;;;;;;;21.75;36.40;100519.97;5033909;28;20863;-49
2023/06/04 08:51:37;;;;;;;0.70;0.40;;;;;;;21.80;36.73;100523.25;5034222;28;20466;-49
2023/06/04 08:54:07;;;;;;;1.10;0.83;;;;;;;21.80;36.43;100525.09;5032374;28;20452;-50
2023/06/04 08:56:35;;;;;;;1.20;0.90;;;;;;;21.70;37.19;100526.72;5029213;28;20472;-49
2023/06/04 08:59:05;;;;;;;9.23;2.23;;;;;;;21.96;37.40;100530.25;5033987;28;20475;-50
2023/06/04 09:01:33;;;;;;;0.87;0.60;;;;;;;22.02;36.57;100525.25;5033943;28;20447;-49
2023/06/04 09:04:03;;;;;;;0.80;0.47;;;;;;;21.89;35.80;100517.16;5034142;28;20452;-49
2023/06/04 09:06:32;;;;;;;2.87;0.70;;;;;;;21.77;36.68;100525.28;5033889;28;20464;-49
2023/06/04 09:09:03;;;;;;;0.60;0.40;;;;;;;22.08;36.29;100532.13;5033954;28;20557;-49
2023/06/04 09:11:41;;;;;;;0.93;0.60;;;;;;;21.96;35.24;100528.41;5033998;28;20451;-49
2023/06/04 09:14:11;;;;;;;1.20;0.70;;;;;;;22.18;36.42;100528.59;5033807;28;20486;-49
2023/06/04 09:16:51;;;;;;;0.60;0.40;;;;;;;22.10;35.76;100533.72;5033878;28;20562;-49
2023/06/04 09:19:19;;;;;;;0.73;0.40;;;;;;;22.36;36.23;100528.25;5034044;28;20999;-49
2023/06/04 09:21:54;;;;;;;1.80;0.70;;;;;;;22.11;34.96;100529.19;5033419;28;20883;-49
2023/06/04 09:24:21;;;;;;;1.00;0.70;;;;;;;22.60;35.28;100525.53;5033443;28;20454;-49
2023/06/04 09:26:49;;;;;;;0.87;0.60;;;;;;;22.55;35.11;100523.19;5033478;28;20527;-49
2023/06/04 09:29:16;;;;;;;8.07;1.10;;;;;;;22.25;35.55;100515.50;5033636;28;20545;-51
2023/06/04 09:32:06;;;;;;;0.70;0.60;;;;;;;22.50;34.47;100516.41;5033457;28;20451;-48
2023/06/04 09:34:33;;;;;;;1.13;0.70;;;;;;;22.37;35.94;100517.31;5033404;28;20451;-48
2023/06/04 09:36:59;;;;;;;1.00;0.70;;;;;;;22.52;35.48;100520.72;5033129;28;20530;-50
2023/06/04 09:39:27;;;;;;;12.40;0.77;;;;;;;22.74;35.17;100528.94;5033560;28;20494;-49
2023/06/04 09:42:00;;;;;;;3.80;1.23;;;;;;;22.61;35.54;100516.44;5033172;28;20494;-49
2023/06/04 09:44:28;;;;;;;1.77;0.97;;;;;;;22.75;35.51;100528.00;5033113;28;20798;-49
2023/06/04 09:46:56;;;;;;;8.43;0.80;;;;;;;22.87;35.66;100520.78;5033174;28;20467;-49
2023/06/04 09:49:23;;;;;;;1.83;1.30;;;;;;;22.73;36.52;100518.22;5032729;28;21055;-49
2023/06/04 09:51:49;;;;;;;1.30;1.00;;;;;;;22.64;36.06;100519.78;5033068;28;20953;-48
2023/06/04 09:54:16;;;;;;;0.80;0.80;;;;;;;23.02;36.73;100521.47;5032919;28;21018;-49
2023/06/04 09:56:43;;;;;;;0.70;0.50;;;;;;;22.70;35.33;100510.31;5032982;28;20480;-49
2023/06/04 09:59:09;;;;;;;0.90;0.60;;;;;;;22.94;36.42;100521.19;5032909;28;20444;-49
2023/06/04 10:01:41;;;;;;;10.10;1.03;;;;;;;23.20;35.82;100511.91;5032801;28;20451;-49
2023/06/04 10:04:11;;;;;;;2.40;0.90;;;;;;;23.20;35.44;100511.91;5032657;28;20493;-49
2023/06/04 10:06:39;;;;;;;1.83;0.60;;;;;;;23.49;35.52;100516.91;5032805;28;20903;-49
2023/06/04 10:09:10;;;;;;;0.60;0.30;;;;;;;23.18;35.34;100515.75;5031954;28;20491;-49
2023/06/04 10:11:59;;;;;;;0.70;0.60;;;;;;;23.48;36.45;100517.91;5032880;28;20457;-49
2023/06/04 10:14:35;;;;;;;5.70;0.90;;;;;;;23.13;36.30;100521.50;5032494;28;20884;-49
2023/06/04 10:17:03;;;;;;;0.60;0.40;;;;;;;23.08;36.59;100510.16;5032797;28;20550;-49
2023/06/04 10:19:31;;;;;;;1.00;0.90;;;;;;;23.40;34.67;100507.63;5032682;28;20460;-48
2023/06/04 10:21:58;;;;;;;7.60;0.60;;;;;;;22.77;34.73;100512.47;5032424;28;20968;-49
2023/06/04 10:24:26;;;;;;;0.80;0.60;;;;;;;23.11;35.09;100512.63;5032599;28;20487;-48
2023/06/04 10:26:57;;;;;;;1.20;0.43;;;;;;;23.24;35.35;100498.97;5032176;28;20518;-49
2023/06/04 10:29:25;;;;;;;0.60;0.40;;;;;;;23.66;35.50;100511.03;5032688;28;20517;-49
2023/06/04 10:31:55;;;;;;;1.47;1.37;;;;;;;23.49;34.97;100506.91;5032536;28;20817;-49
2023/06/04 10:34:22;;;;;;;2.60;0.73;;;;;;;23.21;35.01;100510.94;5032465;28;20448;-49
2023/06/04 10:36:48;;;;;;;2.63;0.77;;;;;;;23.29;34.75;100504.91;5032271;28;20542;-48
2023/06/04 10:39:25;;;;;;;1.03;0.67;;;;;;;23.47;33.97;100510.75;5032338;28;20443;-49
2023/06/04 10:42:02;;;;;;;6.63;0.73;;;;;;;23.52;33.23;100517.53;5032439;28;20459;-49
2023/06/04 10:44:44;;;;;;;2.43;0.63;;;;;;;23.86;33.58;100498.59;5032422;28;20454;-49
2023/06/04 10:47:27;;;;;;;0.60;0.40;;;;;;;23.63;33.32;100508.56;5032323;28;20973;-50
2023/06/04 10:49:54;;;;;;;0.70;0.50;;;;;;;24.22;34.06;100506.44;5031955;28;20518;-49
2023/06/04 10:52:21;;;;;;;2.77;0.63;;;;;;;24.17;32.69;100502.41;5032670;28;20886;-49
2023/06/04 10:54:48;;;;;;;2.73;0.70;;;;;;;24.06;33.32;100505.13;5032273;28;20483;-49
2023/06/04 10:57:17;;;;;;;2.90;0.90;;;;;;;24.06;33.74;100513.28;5032169;28;20474;-49
2023/06/04 10:59:57;;;;;;;0.90;0.53;;;;;;;23.75;33.79;100509.44;5019095;28;20455;-49
2023/06/04 11:02:23;;;;;;;1.80;1.10;;;;;;;23.96;32.87;100517.72;5032061;28;20451;-49
2023/06/04 11:05:08;;;;;;;7.20;0.70;;;;;;;23.68;32.41;100514.50;5032376;28;20454;-49
2023/06/04 11:07:43;;;;;;;0.60;0.50;;;;;;;24.02;32.70;100506.38;5031940;28;21047;-49
2023/06/04 11:10:11;;;;;;;10.70;1.27;;;;;;;24.58;32.75;100500.84;5032051;28;21051;-49
2023/06/04 11:12:50;;;;;;;0.70;0.60;;;;;;;24.31;33.13;100499.44;5032391;28;20912;-49
2023/06/04 11:15:16;;;;;;;0.83;0.53;;;;;;;23.86;32.49;100512.19;5031802;28;20825;-48
2023/06/04 11:17:50;;;;;;;0.97;0.73;;;;;;;23.91;32.93;100508.09;5031958;28;20530;-49
2023/06/04 11:20:18;;;;;;;1.67;1.17;;;;;;;23.84;33.46;100506.84;5033842;28;20455;-49
2023/06/04 11:22:59;;;;;;;0.90;0.70;;;;;;;24.21;32.83;100496.56;5035855;28;20944;-49
2023/06/04 11:25:28;;;;;;;3.07;0.60;;;;;;;24.14;33.49;100508.94;5036071;28;20530;-49
2023/06/04 11:27:55;;;;;;;1.70;0.90;;;;;;;24.13;32.45;100490.94;5035840;28;20566;-49
2023/06/04 11:30:22;;;;;;;1.93;1.03;;;;;;;24.30;32.51;100495.00;5035682;28;20570;-49